createdAt,value
2018-05-12T00:01:22.248Z,101802.30
2018-05-12T00:03:49.663Z,101806.91
2018-05-12T00:06:17.072Z,101803.00
2018-05-12T00:08:44.489Z,101806.36
2018-05-12T00:11:11.900Z,101795.93
2018-05-12T00:13:39.328Z,101797.69
2018-05-12T00:16:06.745Z,101787.77
2018-05-12T00:18:34.152Z,101786.28
2018-05-12T00:21:01.565Z,101784.83
2018-05-12T00:23:28.968Z,101783.58
2018-05-12T00:25:56.376Z,101784.73
2018-05-12T00:28:23.820Z,101779.09
2018-05-12T00:30:51.230Z,101781.36
2018-05-12T00:33:18.641Z,101775.48
2018-05-12T00:35:46.057Z,101777.23
2018-05-12T00:38:13.464Z,101783.80
2018-05-12T00:40:40.894Z,101779.72
2018-05-12T00:43:08.292Z,101778.73
2018-05-12T00:45:35.714Z,101781.92
2018-05-12T00:48:03.128Z,101772.11
2018-05-12T00:50:30.537Z,101769.67
2018-05-12T00:52:57.957Z,101769.94
2018-05-12T00:55:25.375Z,101766.06
2018-05-12T00:57:52.787Z,101768.44
2018-05-12T01:00:20.202Z,101763.21
2018-05-12T01:02:47.613Z,101760.72
2018-05-12T01:05:15.029Z,101757.45
2018-05-12T01:07:42.431Z,101757.66
2018-05-12T01:10:09.848Z,101763.39
2018-05-12T01:12:37.252Z,101756.88
2018-05-12T01:15:04.664Z,101758.16
2018-05-12T01:17:32.077Z,101760.64
2018-05-12T01:19:59.490Z,101754.84
2018-05-12T01:22:26.892Z,101747.98
2018-05-12T01:24:54.303Z,101743.02
2018-05-12T01:27:21.723Z,101746.83
2018-05-12T01:29:49.142Z,101748.69
2018-05-12T01:32:16.540Z,101751.28
2018-05-12T01:34:43.964Z,101746.59
2018-05-12T01:37:11.364Z,101743.69
2018-05-12T01:39:38.780Z,101744.89
2018-05-12T01:42:06.185Z,101745.61
2018-05-12T01:44:33.624Z,101743.39
2018-05-12T01:47:01.121Z,101746.23
2018-05-12T01:49:28.428Z,101744.89
2018-05-12T01:51:55.843Z,101747.36
2018-05-12T01:54:23.285Z,101749.80
2018-05-12T01:56:50.709Z,101750.42
2018-05-12T01:59:18.118Z,101747.89
2018-05-12T02:01:45.526Z,101750.89
2018-05-12T02:04:12.938Z,101750.67
2018-05-12T02:06:40.349Z,101751.19
2018-05-12T02:09:07.772Z,101758.73
2018-05-12T02:11:35.184Z,101754.96
2018-05-12T02:14:02.593Z,101759.09
2018-05-12T02:16:30.028Z,101761.88
2018-05-12T02:18:57.433Z,101761.05
2018-05-12T02:21:24.848Z,101761.51
2018-05-12T02:23:52.252Z,101764.34
2018-05-12T02:26:19.668Z,101760.98
2018-05-12T02:28:47.071Z,101769.98
2018-05-12T02:31:14.504Z,101761.09
2018-05-12T02:33:41.912Z,101759.37
2018-05-12T02:36:09.329Z,101760.78
2018-05-12T02:38:36.767Z,101753.86
2018-05-12T02:41:04.182Z,101757.89
2018-05-12T02:43:31.598Z,101757.77
2018-05-12T02:45:59.005Z,101748.58
2018-05-12T02:48:26.413Z,101748.81
2018-05-12T02:50:53.825Z,101751.81
2018-05-12T02:53:21.243Z,101754.75
2018-05-12T02:55:48.654Z,101754.52
2018-05-12T02:58:16.056Z,101756.69
2018-05-12T03:00:43.473Z,101762.02
2018-05-12T03:03:10.876Z,101758.37
2018-05-12T03:05:38.283Z,101756.45
2018-05-12T03:08:05.697Z,101751.08
2018-05-12T03:10:33.108Z,101753.80
2018-05-12T03:13:00.521Z,101746.69
2018-05-12T03:15:27.932Z,101745.19
2018-05-12T03:17:55.339Z,101750.76
2018-05-12T03:20:22.748Z,101751.64
2018-05-12T03:22:50.155Z,101747.52
2018-05-12T03:25:17.560Z,101748.39
2018-05-12T03:27:44.976Z,101741.07
2018-05-12T03:30:12.383Z,101745.31
2018-05-12T03:32:39.790Z,101747.88
2018-05-12T03:35:07.191Z,101746.89
2018-05-12T03:37:34.607Z,101751.03
2018-05-12T03:40:02.036Z,101751.30
2018-05-12T03:42:29.456Z,101751.14
2018-05-12T03:44:56.864Z,101751.36
2018-05-12T03:47:24.277Z,101751.41
2018-05-12T03:49:51.694Z,101742.48
2018-05-12T03:52:19.108Z,101745.57
2018-05-12T03:54:46.516Z,101748.09
2018-05-12T03:57:13.929Z,101749.13
2018-05-12T03:59:41.333Z,101747.36
2018-05-12T04:02:08.777Z,101749.69
2018-05-12T04:04:48.008Z,101749.22
2018-05-12T04:07:28.113Z,101744.48
2018-05-12T04:10:07.296Z,101742.11
2018-05-12T04:12:37.105Z,101745.56
2018-05-12T04:15:04.517Z,101751.77
2018-05-12T04:17:31.928Z,101749.55
2018-05-12T04:19:59.330Z,101745.61
2018-05-12T04:22:26.756Z,101753.46
2018-05-12T04:24:54.163Z,101749.96
2018-05-12T04:27:21.576Z,101751.50
2018-05-12T04:29:48.984Z,101758.52
2018-05-12T04:32:16.401Z,101760.38
2018-05-12T04:34:43.805Z,101757.45
2018-05-12T04:37:11.231Z,101757.70
2018-05-12T04:39:38.636Z,101762.05
2018-05-12T04:42:06.056Z,101759.45
2018-05-12T04:44:33.464Z,101763.39
2018-05-12T04:47:00.882Z,101760.84
2018-05-12T04:49:28.309Z,101763.45
2018-05-12T04:51:55.730Z,101766.89
2018-05-12T04:54:23.133Z,101763.58
2018-05-12T04:56:50.552Z,101763.11
2018-05-12T04:59:17.957Z,101763.91
2018-05-12T05:01:45.382Z,101769.48
2018-05-12T05:04:12.790Z,101778.27
2018-05-12T05:06:40.207Z,101778.92
2018-05-12T05:09:07.624Z,101775.25
2018-05-12T05:11:35.031Z,101772.63
2018-05-12T05:14:02.459Z,101773.20
2018-05-12T05:16:29.885Z,101770.66
2018-05-12T05:18:57.292Z,101770.34
2018-05-12T05:21:24.707Z,101768.27
2018-05-12T05:23:52.137Z,101769.31
2018-05-12T05:26:19.540Z,101772.86
2018-05-12T05:28:46.955Z,101776.74
2018-05-12T05:31:14.362Z,101776.85
2018-05-12T05:33:41.795Z,101779.70
2018-05-12T05:36:09.197Z,101773.64
2018-05-12T05:38:36.653Z,101787.08
2018-05-12T05:41:04.071Z,101784.86
2018-05-12T05:43:31.491Z,101773.64
2018-05-12T05:45:58.908Z,101779.28
2018-05-12T05:48:26.325Z,101778.70
2018-05-12T05:50:53.752Z,101777.14
2018-05-12T05:53:21.157Z,101782.53
2018-05-12T05:55:48.559Z,101777.03
2018-05-12T05:58:16.012Z,101782.61
2018-05-12T06:00:43.411Z,101778.02
2018-05-12T06:03:10.864Z,101778.89
2018-05-12T06:05:38.276Z,101773.57
2018-05-12T06:08:05.717Z,101778.05
2018-05-12T06:10:33.108Z,101778.32
2018-05-12T06:13:00.528Z,101781.36
2018-05-12T06:15:27.951Z,101781.00
2018-05-12T06:17:55.380Z,101779.08
2018-05-12T06:20:22.802Z,101782.22
2018-05-12T06:22:50.220Z,101793.57
2018-05-12T06:25:17.642Z,101788.97
2018-05-12T06:27:45.084Z,101790.37
2018-05-12T06:30:12.505Z,101790.66
2018-05-12T06:32:39.938Z,101792.04
2018-05-12T06:35:07.353Z,101794.52
2018-05-12T06:37:34.775Z,101793.88
2018-05-12T06:40:02.196Z,101792.05
2018-05-12T06:42:29.649Z,101799.02
2018-05-12T06:44:57.068Z,101797.09
2018-05-12T06:47:24.541Z,101795.38
2018-05-12T06:49:51.964Z,101798.88
2018-05-12T06:52:19.381Z,101801.96
2018-05-12T06:54:46.805Z,101805.02
2018-05-12T06:57:14.215Z,101807.63
2018-05-12T06:59:41.641Z,101811.62
2018-05-12T07:02:09.061Z,101815.57
2018-05-12T07:04:36.490Z,101815.25
2018-05-12T07:07:03.900Z,101814.77
2018-05-12T07:09:31.331Z,101811.85
2018-05-12T07:11:58.782Z,101808.77
2018-05-12T07:14:26.196Z,101809.72
2018-05-12T07:16:53.614Z,101809.20
2018-05-12T07:19:21.133Z,101811.09
2018-05-12T07:21:48.481Z,101811.05
2018-05-12T07:24:15.910Z,101810.48
2018-05-12T07:26:43.315Z,101805.33
2018-05-12T07:29:10.749Z,101798.03
2018-05-12T07:31:38.168Z,101797.53
2018-05-12T07:34:05.592Z,101795.78
2018-05-12T07:36:33.004Z,101799.75
2018-05-12T07:39:00.520Z,101800.97
2018-05-12T07:41:27.850Z,101805.47
2018-05-12T07:43:55.269Z,101805.39
2018-05-12T07:46:22.684Z,101803.37
2018-05-12T07:48:50.112Z,101793.13
2018-05-12T07:51:17.533Z,101786.67
2018-05-12T07:53:44.964Z,101791.66
2018-05-12T07:56:12.377Z,101792.70
2018-05-12T07:58:39.801Z,101784.23
2018-05-12T08:01:07.237Z,101781.37
2018-05-12T08:03:34.769Z,101773.73
2018-05-12T08:06:02.092Z,101780.70
2018-05-12T08:08:29.520Z,101781.71
2018-05-12T08:10:56.932Z,101776.88
2018-05-12T08:13:24.356Z,101778.89
2018-05-12T08:15:51.769Z,101775.56
2018-05-12T08:18:19.188Z,101772.52
2018-05-12T08:20:46.605Z,101775.36
2018-05-12T08:23:14.029Z,101781.84
2018-05-12T08:25:41.445Z,101781.91
2018-05-12T08:28:08.865Z,101779.32
2018-05-12T08:30:36.280Z,101779.15
2018-05-12T08:33:03.712Z,101773.81
2018-05-12T08:35:31.133Z,101781.94
2018-05-12T08:37:58.552Z,101779.76
2018-05-12T08:40:26.031Z,101771.34
2018-05-12T08:42:53.392Z,101774.45
2018-05-12T08:45:20.819Z,101778.28
2018-05-12T08:47:48.234Z,101780.30
2018-05-12T08:50:15.661Z,101771.23
2018-05-12T08:52:43.073Z,101775.92
2018-05-12T08:55:10.496Z,101776.50
2018-05-12T08:57:37.916Z,101769.44
2018-05-12T09:00:05.339Z,101773.91
2018-05-12T09:02:32.760Z,101769.07
2018-05-12T09:05:00.188Z,101767.25
2018-05-12T09:07:27.596Z,101764.86
2018-05-12T09:09:55.025Z,101763.65
2018-05-12T09:12:22.441Z,101766.28
2018-05-12T09:14:49.867Z,101771.92
2018-05-12T09:17:17.281Z,101776.56
2018-05-12T09:19:44.705Z,101766.08
2018-05-12T09:22:12.120Z,101763.41
2018-05-12T09:24:39.555Z,101755.55
2018-05-12T09:27:06.968Z,101756.93
2018-05-12T09:29:34.405Z,101763.17
2018-05-12T09:32:01.818Z,101760.36
2018-05-12T09:34:29.242Z,101762.37
2018-05-12T09:36:56.657Z,101760.78
2018-05-12T09:39:24.080Z,101750.61
2018-05-12T09:41:51.501Z,101754.41
2018-05-12T09:44:18.924Z,101756.95
2018-05-12T09:46:46.340Z,101763.02
2018-05-12T09:49:13.768Z,101756.81
2018-05-12T09:51:41.189Z,101753.99
2018-05-12T09:54:08.612Z,101760.03
2018-05-12T09:56:36.028Z,101756.84
2018-05-12T09:59:03.472Z,101754.44
2018-05-12T10:01:30.884Z,101748.56
2018-05-12T10:03:58.301Z,101752.99
2018-05-12T10:06:25.716Z,101749.07
2018-05-12T10:08:53.137Z,101742.67
2018-05-12T10:11:20.586Z,101746.75
2018-05-12T10:13:47.995Z,101740.69
2018-05-12T10:16:15.413Z,101743.49
2018-05-12T10:18:42.837Z,101739.30
2018-05-12T10:21:10.292Z,101740.35
2018-05-12T10:23:37.715Z,101734.27
2018-05-12T10:26:05.168Z,101739.13
2018-05-12T10:28:32.546Z,101737.94
2018-05-12T10:30:59.999Z,101739.13
2018-05-12T10:33:27.411Z,101728.03
2018-05-12T10:35:54.837Z,101733.47
2018-05-12T10:38:22.253Z,101736.52
2018-05-12T10:40:49.677Z,101735.33
2018-05-12T10:43:17.096Z,101724.61
2018-05-12T10:45:44.524Z,101719.97
2018-05-12T10:48:11.972Z,101721.77
2018-05-12T10:50:39.398Z,101718.50
2018-05-12T10:53:06.819Z,101725.58
2018-05-12T10:55:34.245Z,101717.48
2018-05-12T10:58:01.665Z,101719.47
2018-05-12T11:00:29.083Z,101717.27
2018-05-12T11:02:56.504Z,101715.06
2018-05-12T11:05:23.916Z,101710.02
2018-05-12T11:07:51.332Z,101707.45
2018-05-12T11:10:18.764Z,101704.20
2018-05-12T11:12:46.186Z,101701.98
2018-05-12T11:15:13.639Z,101708.61
2018-05-12T11:17:41.068Z,101703.24
2018-05-12T11:20:08.522Z,101691.14
2018-05-12T11:22:35.996Z,101694.38
2018-05-12T11:25:03.423Z,101698.70
2018-05-12T11:27:30.896Z,101693.78
2018-05-12T11:29:58.321Z,101692.00
2018-05-12T11:32:25.799Z,101693.59
2018-05-12T11:34:53.244Z,101682.44
2018-05-12T11:37:20.722Z,101686.16
2018-05-12T11:39:48.176Z,101683.05
2018-05-12T11:42:15.606Z,101686.84
2018-05-12T11:44:43.138Z,101682.70
2018-05-12T11:47:10.546Z,101676.00
2018-05-12T11:49:37.961Z,101675.83
2018-05-12T11:52:05.379Z,101674.84
2018-05-12T11:54:32.812Z,101661.14
2018-05-12T11:57:00.265Z,101660.63
2018-05-12T11:59:27.685Z,101669.88
2018-05-12T12:01:55.158Z,101658.03
2018-05-12T12:04:22.622Z,101644.67
2018-05-12T12:06:50.122Z,101647.64
2018-05-12T12:09:17.538Z,101648.81
2018-05-12T12:11:44.970Z,101645.67
2018-05-12T12:14:12.448Z,101644.86
2018-05-12T12:16:39.986Z,101649.31
2018-05-12T12:19:07.360Z,101640.30
2018-05-12T12:21:34.783Z,101642.47
2018-05-12T12:24:02.196Z,101641.68
2018-05-12T12:26:29.726Z,101644.80
2018-05-12T12:28:57.132Z,101640.50
2018-05-12T12:31:24.630Z,101639.28
2018-05-12T12:33:52.093Z,101638.06
2018-05-12T12:36:19.536Z,101634.96
2018-05-12T12:38:46.941Z,101640.22
2018-05-12T12:41:14.365Z,101639.88
2018-05-12T12:43:41.791Z,101633.37
2018-05-12T12:46:09.221Z,101632.88
2018-05-12T12:48:36.638Z,101630.30
2018-05-12T12:51:04.060Z,101616.23
2018-05-12T12:53:31.532Z,101623.95
2018-05-12T12:55:58.957Z,101612.61
2018-05-12T12:58:26.413Z,101625.05
2018-05-12T13:00:53.796Z,101614.66
2018-05-12T13:03:21.216Z,101617.63
2018-05-12T13:05:48.640Z,101613.61
2018-05-12T13:08:16.056Z,101616.59
2018-05-12T13:10:43.504Z,101614.44
2018-05-12T13:13:10.970Z,101608.68
2018-05-12T13:15:38.436Z,101607.22
2018-05-12T13:18:05.881Z,101600.98
2018-05-12T13:20:33.312Z,101591.80
2018-05-12T13:23:00.732Z,101590.30
2018-05-12T13:25:28.154Z,101585.91
2018-05-12T13:27:55.686Z,101581.36
2018-05-12T13:30:23.002Z,101579.56
2018-05-12T13:32:50.428Z,101579.48
2018-05-12T13:35:17.859Z,101583.06
2018-05-12T13:37:45.269Z,101576.36
2018-05-12T13:40:12.773Z,101572.55
2018-05-12T13:42:40.205Z,101568.97
2018-05-12T13:45:07.625Z,101566.48
2018-05-12T13:47:35.045Z,101567.95
2018-05-12T13:50:02.464Z,101566.13
2018-05-12T13:52:29.958Z,101568.70
2018-05-12T13:54:57.373Z,101566.00
2018-05-12T13:57:24.865Z,101558.95
2018-05-12T13:59:52.287Z,101558.51
2018-05-12T14:02:19.724Z,101555.52
2018-05-12T14:04:47.226Z,101554.78
2018-05-12T14:07:14.657Z,101555.72
2018-05-12T14:09:42.064Z,101550.48
2018-05-12T14:12:09.493Z,101555.05
2018-05-12T14:14:36.917Z,101555.36
2018-05-12T14:17:04.413Z,101544.04
2018-05-12T14:19:31.831Z,101546.42
2018-05-12T14:21:59.254Z,101546.16
2018-05-12T14:24:26.680Z,101544.72
2018-05-12T14:26:54.111Z,101538.30
2018-05-12T14:29:21.524Z,101540.28
2018-05-12T14:31:49.039Z,101537.97
2018-05-12T14:34:16.468Z,101535.82
2018-05-12T14:36:43.933Z,101527.25
2018-05-12T14:39:11.406Z,101524.13
2018-05-12T14:41:38.834Z,101522.78
2018-05-12T14:44:06.245Z,101526.30
2018-05-12T14:46:33.663Z,101521.63
2018-05-12T14:49:01.083Z,101516.23
2018-05-12T14:51:28.492Z,101525.56
2018-05-12T14:53:55.921Z,101526.12
2018-05-12T14:56:23.384Z,101517.47
2018-05-12T14:58:50.840Z,101514.34
2018-05-12T15:01:18.301Z,101514.01
2018-05-12T15:03:45.761Z,101518.84
2018-05-12T15:06:13.204Z,101513.80
2018-05-12T15:08:40.665Z,101514.21
2018-05-12T15:11:08.137Z,101512.05
2018-05-12T15:13:35.555Z,101514.03
2018-05-12T15:16:02.963Z,101523.83
2018-05-12T15:18:30.484Z,101514.72
2018-05-12T15:20:57.888Z,101516.47
2018-05-12T15:23:25.404Z,101513.91
2018-05-12T15:25:52.819Z,101511.81
2018-05-12T15:28:20.253Z,101505.33
2018-05-12T15:30:47.777Z,101503.74
2018-05-12T15:33:15.196Z,101504.17
2018-05-12T15:35:42.613Z,101503.27
2018-05-12T15:38:10.037Z,101499.62
2018-05-12T15:40:37.458Z,101499.98
2018-05-12T15:43:04.882Z,101505.98
2018-05-12T15:45:32.305Z,101501.81
2018-05-12T15:47:59.732Z,101488.81
2018-05-12T15:50:27.160Z,101483.39
2018-05-12T15:52:54.576Z,101494.41
2018-05-12T15:55:21.988Z,101487.17
2018-05-12T15:57:49.410Z,101483.70
2018-05-12T16:00:16.824Z,101476.05
2018-05-12T16:02:44.281Z,101474.08
2018-05-12T16:05:11.704Z,101474.34
2018-05-12T16:07:39.124Z,101474.13
2018-05-12T16:10:06.554Z,101477.83
2018-05-12T16:12:33.981Z,101468.62
2018-05-12T16:15:01.420Z,101471.25
2018-05-12T16:17:28.825Z,101460.44
2018-05-12T16:19:56.236Z,101471.98
2018-05-12T16:22:23.725Z,101466.36
2018-05-12T16:24:51.144Z,101471.30
2018-05-12T16:27:18.556Z,101471.17
2018-05-12T16:29:45.980Z,101467.37
2018-05-12T16:32:13.394Z,101466.68
2018-05-12T16:34:40.808Z,101467.49
2018-05-12T16:37:08.244Z,101464.10
2018-05-12T16:39:35.708Z,101462.55
2018-05-12T16:42:03.125Z,101464.20
2018-05-12T16:44:30.676Z,101455.94
2018-05-12T16:46:58.043Z,101461.39
2018-05-12T16:49:25.468Z,101468.58
2018-05-12T16:51:52.884Z,101461.97
2018-05-12T16:54:20.313Z,101466.11
2018-05-12T16:56:47.733Z,101472.99
2018-05-12T16:59:15.270Z,101464.94
2018-05-12T17:01:42.669Z,101466.19
2018-05-12T17:04:10.157Z,101472.50
2018-05-12T17:06:37.617Z,101473.50
2018-05-12T17:09:05.884Z,101470.89
2018-05-12T17:11:33.339Z,101468.49
2018-05-12T17:14:00.766Z,101474.55
2018-05-12T17:16:28.209Z,101471.14
2018-05-12T17:18:55.712Z,101468.53
2018-05-12T17:21:23.162Z,101456.64
2018-05-12T17:23:50.585Z,101454.42
2018-05-12T17:26:18.085Z,101463.89
2018-05-12T17:28:45.529Z,101464.11
2018-05-12T17:31:12.932Z,101462.09
2018-05-12T17:33:40.444Z,101461.28
2018-05-12T17:36:07.865Z,101460.70
2018-05-12T17:38:35.285Z,101459.06
2018-05-12T17:41:02.826Z,101455.88
2018-05-12T17:43:30.254Z,101454.24
2018-05-12T17:45:57.669Z,101454.05
2018-05-12T17:48:25.095Z,101452.45
2018-05-12T17:50:52.513Z,101454.05
2018-05-12T17:53:19.943Z,101458.08
2018-05-12T17:55:47.456Z,101454.24
2018-05-12T17:58:14.784Z,101453.02
2018-05-12T18:00:42.192Z,101450.16
2018-05-12T18:03:09.613Z,101449.95
2018-05-12T18:05:37.053Z,101448.14
2018-05-12T18:08:04.472Z,101443.91
2018-05-12T18:10:31.900Z,101448.55
2018-05-12T18:12:59.320Z,101442.50
2018-05-12T18:15:26.736Z,101446.33
2018-05-12T18:17:54.157Z,101440.67
2018-05-12T18:20:22.435Z,101445.67
2018-05-12T18:22:49.844Z,101443.05
2018-05-12T18:25:17.301Z,101444.64
2018-05-12T18:27:44.718Z,101442.82
2018-05-12T18:30:12.143Z,101451.23
2018-05-12T18:32:39.567Z,101452.64
2018-05-12T18:35:07.003Z,101458.19
2018-05-12T18:37:34.412Z,101456.52
2018-05-12T18:40:01.845Z,101457.69
2018-05-12T18:42:29.294Z,101455.88
2018-05-12T18:44:56.761Z,101464.02
2018-05-12T18:47:24.336Z,101457.37
2018-05-12T18:49:51.759Z,101462.92
2018-05-12T18:52:19.168Z,101469.46
2018-05-12T18:54:46.592Z,101460.52
2018-05-12T18:57:14.003Z,101467.56
2018-05-12T18:59:41.430Z,101467.91
2018-05-12T19:02:08.845Z,101465.77
2018-05-12T19:04:36.292Z,101472.19
2018-05-12T19:07:03.719Z,101476.95
2018-05-12T19:09:31.144Z,101470.75
2018-05-12T19:11:58.568Z,101474.09
2018-05-12T19:14:26.029Z,101474.17
2018-05-12T19:16:53.472Z,101475.09
2018-05-12T19:19:20.896Z,101480.55
2018-05-12T19:21:48.395Z,101478.87
2018-05-12T19:24:15.844Z,101478.89
2018-05-12T19:26:43.304Z,101476.82
2018-05-12T19:29:10.732Z,101488.16
2018-05-12T19:31:38.150Z,101487.56
2018-05-12T19:34:05.659Z,101487.23
2018-05-12T19:36:33.085Z,101486.20
2018-05-12T19:39:00.508Z,101490.23
2018-05-12T19:41:27.921Z,101484.19
2018-05-12T19:43:55.336Z,101484.19
2018-05-12T19:46:22.776Z,101492.95
2018-05-12T19:48:50.310Z,101490.55
2018-05-12T19:51:17.750Z,101484.17
2018-05-12T19:53:45.298Z,101494.61
2018-05-12T19:56:12.790Z,101488.96
2018-05-12T19:58:40.356Z,101490.13
2018-05-12T20:01:08.529Z,101493.67
2018-05-12T20:03:35.965Z,101489.14
2018-05-12T20:06:03.383Z,101501.20
2018-05-12T20:08:30.860Z,101494.75
2018-05-12T20:10:58.296Z,101487.65
2018-05-12T20:13:25.780Z,101488.19
2018-05-12T20:15:53.308Z,101492.41
2018-05-12T20:18:20.628Z,101485.75
2018-05-12T20:20:48.156Z,101485.24
2018-05-12T20:23:15.584Z,101481.70
2018-05-12T20:25:43.066Z,101473.45
2018-05-12T20:28:12.763Z,101482.05
2018-05-12T20:30:41.425Z,101482.42
2018-05-12T20:33:08.852Z,101479.05
2018-05-12T20:35:36.279Z,101480.86
2018-05-12T20:38:03.845Z,101488.41
2018-05-12T20:40:32.034Z,101479.01
2018-05-12T20:42:59.448Z,101472.39
2018-05-12T20:45:26.892Z,101483.08
2018-05-12T20:47:54.377Z,101479.33
2018-05-12T20:50:21.909Z,101480.22
2018-05-12T20:52:49.344Z,101478.42
2018-05-12T20:55:16.774Z,101483.63
2018-05-12T20:57:44.181Z,101478.31
2018-05-12T21:00:11.623Z,101483.27
2018-05-12T21:02:39.046Z,101488.75
2018-05-12T21:05:06.540Z,101484.91
2018-05-12T21:07:34.008Z,101480.36
2018-05-12T21:10:01.424Z,101483.77
2018-05-12T21:12:28.914Z,101478.34
2018-05-12T21:14:56.360Z,101474.16
2018-05-12T21:17:23.780Z,101475.67
2018-05-12T21:19:51.277Z,101470.06
2018-05-12T21:22:18.791Z,101476.34
2018-05-12T21:24:46.136Z,101478.81
2018-05-12T21:27:13.562Z,101486.69
2018-05-12T21:29:40.972Z,101483.94
2018-05-12T21:32:08.397Z,101479.98
2018-05-12T21:34:35.897Z,101481.07
2018-05-12T21:37:03.325Z,101483.11
2018-05-12T21:39:30.739Z,101482.26
2018-05-12T21:41:58.162Z,101481.48
2018-05-12T21:44:25.571Z,101480.67
2018-05-12T21:46:53.007Z,101484.70
2018-05-12T21:49:20.428Z,101481.63
2018-05-12T21:51:47.897Z,101482.02
2018-05-12T21:54:15.354Z,101483.52
2018-05-12T21:56:42.773Z,101474.23
2018-05-12T21:59:10.253Z,101479.06
2018-05-12T22:01:37.688Z,101480.22
2018-05-12T22:04:05.160Z,101481.39
2018-05-12T22:06:32.619Z,101480.80
2018-05-12T22:09:00.095Z,101468.64
2018-05-12T22:11:27.515Z,101469.80
2018-05-12T22:13:54.989Z,101473.94
2018-05-12T22:16:22.412Z,101471.69
2018-05-12T22:18:49.832Z,101474.50
2018-05-12T22:21:17.253Z,101468.30
2018-05-12T22:23:44.706Z,101472.78
2018-05-12T22:26:12.124Z,101476.97
2018-05-12T22:28:39.538Z,101473.78
2018-05-12T22:31:06.968Z,101465.98
2018-05-12T22:33:34.392Z,101466.41
2018-05-12T22:36:01.894Z,101455.15
2018-05-12T22:38:29.338Z,101459.02
2018-05-12T22:40:56.799Z,101456.45
2018-05-12T22:43:24.211Z,101462.76
2018-05-12T22:45:51.636Z,101452.95
2018-05-12T22:48:19.067Z,101447.95
2018-05-12T22:50:46.532Z,101440.51
2018-05-12T22:53:13.960Z,101450.15
2018-05-12T22:55:41.388Z,101444.69
2018-05-12T22:58:08.797Z,101447.33
2018-05-12T23:00:36.275Z,101443.27
2018-05-12T23:03:03.927Z,101443.20
2018-05-12T23:05:31.345Z,101450.57
2018-05-12T23:07:58.783Z,101448.51
2018-05-12T23:10:26.257Z,101445.47
2018-05-12T23:12:53.712Z,101446.47
2018-05-12T23:15:21.183Z,101446.44
2018-05-12T23:17:48.627Z,101444.53
2018-05-12T23:20:16.044Z,101446.53
2018-05-12T23:22:48.212Z,101440.27
2018-05-12T23:25:15.628Z,101441.31
2018-05-12T23:27:43.157Z,101442.22
2018-05-12T23:30:10.578Z,101441.48
2018-05-12T23:32:38.073Z,101451.73
2018-05-12T23:35:05.497Z,101445.94
2018-05-12T23:37:32.912Z,101445.22
2018-05-12T23:40:00.336Z,101433.75
2018-05-12T23:42:27.838Z,101433.55
2018-05-12T23:44:55.205Z,101429.56
2018-05-12T23:47:22.620Z,101423.13
2018-05-12T23:49:50.037Z,101417.73
2018-05-12T23:52:17.452Z,101414.08
2018-05-12T23:54:44.868Z,101432.16
2018-05-12T23:57:12.312Z,101423.85
2018-05-12T23:59:39.776Z,101428.53
